Jacksonville, Vermont
Current Conditions -  °F | °C
As of 1:52 PM on Monday 20 Oct 2014 (Local Time) from KAQW Reporting Station
Clear Clear  
Wind Chill: 53°   Ceiling: Unl
Heat Index: 53°   Visibility: 10mi
Dew Point: 32°   Wind: 7mph
Humidity: 45%   Direction: 230°SW
Pressure: 29.96"   Gusts: NA
Location:  42.8°N, 72.82°W
Report Text: KAQW 201752Z AUTO 23006KT 10SM CLR 12/00 A2996 RMK AO2 SLP148 T01170000 10122 21017 56028
Loading
Personal Weather Stations






























Interactive Weather Map
Tropical Storm Tracking
New forecast layout! Learn more

10-Day Weather Forecast

Advertisements
Track Severe Weather on mobile